createdAt,value
2022-08-09T00:00:11.251Z,13.58
2022-08-09T00:02:42.968Z,13.55
2022-08-09T00:06:18.516Z,13.53
2022-08-09T00:08:12.833Z,13.60
2022-08-09T00:10:59.564Z,13.54
2022-08-09T00:13:28.036Z,13.59
2022-08-09T00:16:02.826Z,13.51
2022-08-09T00:18:34.573Z,13.51
2022-08-09T00:21:04.472Z,13.58
2022-08-09T00:23:58.221Z,13.64
2022-08-09T00:26:19.464Z,13.61
2022-08-09T00:28:58.639Z,13.49
2022-08-09T00:31:56.726Z,13.49
2022-08-09T00:34:14.219Z,13.43
2022-08-09T00:36:42.094Z,13.39
2022-08-09T00:39:16.957Z,13.46
2022-08-09T00:44:13.797Z,13.61
2022-08-09T00:44:47.102Z,13.46
2022-08-09T00:47:16.302Z,13.29
2022-08-09T00:49:43.729Z,13.19
2022-08-09T00:52:20.424Z,13.18
2022-08-09T00:54:49.248Z,13.19
2022-08-09T00:57:33.854Z,13.21
2022-08-09T01:00:21.067Z,13.25
2022-08-09T01:03:20.384Z,13.24
2022-08-09T01:05:57.138Z,13.14
2022-08-09T01:08:40.531Z,13.14
2022-08-09T01:11:23.833Z,12.96
2022-08-09T01:14:00.034Z,12.94
2022-08-09T01:16:47.420Z,12.95
2022-08-09T01:20:01.920Z,12.91
2022-08-09T01:22:55.046Z,12.86
2022-08-09T01:25:24.911Z,12.90
2022-08-09T01:27:54.485Z,12.85
2022-08-09T01:30:33.700Z,12.89
2022-08-09T01:33:05.142Z,12.81
2022-08-09T01:35:45.481Z,12.76
2022-08-09T01:38:16.636Z,12.79
2022-08-09T01:41:04.817Z,12.77
2022-08-09T01:43:50.233Z,12.72
2022-08-09T01:46:26.550Z,12.80
2022-08-09T01:49:09.974Z,12.74
2022-08-09T01:51:44.382Z,12.63
2022-08-09T01:54:21.395Z,12.65
2022-08-09T01:56:51.621Z,12.64
2022-08-09T01:59:21.038Z,12.61
2022-08-09T02:01:58.113Z,12.61
2022-08-09T02:04:28.462Z,12.62
2022-08-09T02:07:17.873Z,12.60
2022-08-09T02:10:10.197Z,12.57
2022-08-09T02:12:39.323Z,12.55
2022-08-09T02:15:15.486Z,12.53
2022-08-09T02:18:01.271Z,12.47
2022-08-09T02:20:38.545Z,12.46
2022-08-09T02:23:14.103Z,12.50
2022-08-09T02:25:52.519Z,12.42
2022-08-09T02:28:44.918Z,12.57
2022-08-09T02:31:19.306Z,12.61
2022-08-09T02:34:06.581Z,12.59
2022-08-09T02:36:42.077Z,12.52
2022-08-09T02:39:33.230Z,12.52
2022-08-09T02:42:07.817Z,12.47
2022-08-09T02:44:38.473Z,12.52
2022-08-09T02:47:09.731Z,12.42
2022-08-09T02:50:01.880Z,12.35
2022-08-09T02:52:36.716Z,12.32
2022-08-09T02:55:20.997Z,12.34
2022-08-09T02:58:00.598Z,12.20
2022-08-09T03:00:47.784Z,12.20
2022-08-09T03:04:12.551Z,12.28
2022-08-09T03:06:15.113Z,12.25
2022-08-09T03:08:44.768Z,12.26
2022-08-09T03:12:04.428Z,12.28
2022-08-09T03:14:05.468Z,12.16
2022-08-09T03:16:37.404Z,12.15
2022-08-09T03:19:16.699Z,12.12
2022-08-09T03:21:58.073Z,12.08
2022-08-09T03:24:31.558Z,12.13
2022-08-09T03:27:12.722Z,12.12
2022-08-09T03:29:58.048Z,12.03
2022-08-09T03:32:36.778Z,12.04
2022-08-09T03:35:15.041Z,12.03
2022-08-09T03:37:56.414Z,11.89
2022-08-09T03:40:25.241Z,11.91
2022-08-09T03:42:57.953Z,12.00
2022-08-09T03:46:05.255Z,11.96
2022-08-09T03:48:11.602Z,11.91
2022-08-09T03:50:45.921Z,11.90
2022-08-09T03:53:16.828Z,12.01
2022-08-09T03:55:48.484Z,12.01
2022-08-09T03:58:16.355Z,12.03
2022-08-09T04:00:45.556Z,12.10
2022-08-09T04:03:15.296Z,12.06
2022-08-09T04:05:51.921Z,12.07
2022-08-09T04:08:19.192Z,12.07
2022-08-09T04:10:56.144Z,11.99
2022-08-09T04:14:36.640Z,12.01
2022-08-09T04:16:19.354Z,12.07
2022-08-09T04:18:48.021Z,12.14
2022-08-09T04:21:18.090Z,12.19
2022-08-09T04:23:54.413Z,12.19
2022-08-09T04:26:24.842Z,12.34
2022-08-09T04:29:07.865Z,12.45
2022-08-09T04:31:47.392Z,12.40
2022-08-09T04:34:19.050Z,12.43
2022-08-09T04:36:57.702Z,12.46
2022-08-09T04:39:24.657Z,12.58
2022-08-09T04:41:59.861Z,12.75
2022-08-09T04:44:29.339Z,12.70
2022-08-09T04:46:58.360Z,12.70
2022-08-09T04:49:53.241Z,12.72
2022-08-09T04:52:32.449Z,13.15
2022-08-09T04:55:01.561Z,13.39
2022-08-09T04:57:58.401Z,13.77
2022-08-09T05:00:16.758Z,14.10
2022-08-09T05:02:44.327Z,14.28
2022-08-09T05:05:31.514Z,14.65
2022-08-09T05:08:05.741Z,14.95
2022-08-09T05:10:34.112Z,15.30
2022-08-09T05:13:04.007Z,15.49
2022-08-09T05:15:39.079Z,15.66
2022-08-09T05:18:37.642Z,15.70
2022-08-09T05:21:01.940Z,15.62
2022-08-09T05:23:54.941Z,15.57
2022-08-09T05:26:16.034Z,15.77
2022-08-09T05:28:53.404Z,15.96
2022-08-09T05:31:37.015Z,16.07
2022-08-09T05:34:06.906Z,16.34
2022-08-09T05:36:43.799Z,16.66
2022-08-09T05:39:13.634Z,16.94
2022-08-09T05:41:55.697Z,17.23
2022-08-09T05:44:29.065Z,17.52
2022-08-09T05:46:59.746Z,17.68
2022-08-09T05:50:23.441Z,17.81
2022-08-09T05:52:14.057Z,17.67
2022-08-09T05:54:42.571Z,17.67
2022-08-09T05:57:14.243Z,17.91
2022-08-09T05:59:45.144Z,18.44
2022-08-09T06:02:17.125Z,18.92
2022-08-09T06:04:46.013Z,19.28
2022-08-09T06:07:21.148Z,19.51
2022-08-09T06:10:02.488Z,19.72
2022-08-09T06:12:30.470Z,19.91
2022-08-09T06:15:01.067Z,20.11
2022-08-09T06:17:39.917Z,20.26
2022-08-09T06:20:08.593Z,20.51
2022-08-09T06:22:36.254Z,20.63
2022-08-09T06:25:03.813Z,20.65
2022-08-09T06:27:42.015Z,20.88
2022-08-09T06:30:14.256Z,21.06
2022-08-09T06:33:00.856Z,21.08
2022-08-09T06:35:56.093Z,21.27
2022-08-09T06:38:16.998Z,21.84
2022-08-09T06:40:46.167Z,22.82
2022-08-09T06:43:14.100Z,23.42
2022-08-09T06:46:06.262Z,23.23
2022-08-09T06:48:30.877Z,23.85
2022-08-09T06:51:04.494Z,23.81
2022-08-09T06:53:33.202Z,23.37
2022-08-09T06:56:06.681Z,23.43
2022-08-09T07:00:46.509Z,23.54
2022-08-09T07:01:23.986Z,23.70
2022-08-09T07:03:57.828Z,24.25
2022-08-09T07:06:30.635Z,24.08
2022-08-09T07:08:57.421Z,23.68
2022-08-09T07:11:25.572Z,24.06
2022-08-09T07:14:05.495Z,24.60
2022-08-09T07:16:43.362Z,24.71
2022-08-09T07:19:18.576Z,24.84
2022-08-09T07:21:55.582Z,24.56
2022-08-09T07:24:32.233Z,24.32
2022-08-09T07:27:23.894Z,24.71
2022-08-09T07:29:58.478Z,24.70
2022-08-09T07:32:32.617Z,24.34
2022-08-09T07:35:07.939Z,23.76
2022-08-09T07:37:44.016Z,24.34
2022-08-09T07:40:18.890Z,23.53
2022-08-09T07:42:54.901Z,23.42
2022-08-09T07:45:37.860Z,23.64
2022-08-09T07:48:08.298Z,23.72
2022-08-09T07:51:09.490Z,23.52
2022-08-09T07:54:04.356Z,23.17
2022-08-09T07:56:28.925Z,22.75
2022-08-09T07:58:59.209Z,22.90
2022-08-09T08:01:28.479Z,23.01
2022-08-09T08:04:02.718Z,23.14
2022-08-09T08:06:32.943Z,23.00
2022-08-09T08:09:05.349Z,22.40
2022-08-09T08:12:10.415Z,22.96
2022-08-09T08:14:31.859Z,22.55
2022-08-09T08:17:07.355Z,22.35
2022-08-09T08:19:35.253Z,22.53
2022-08-09T08:22:03.125Z,22.98
2022-08-09T08:24:34.343Z,22.75
2022-08-09T08:27:16.776Z,22.86
2022-08-09T08:29:49.903Z,22.78
2022-08-09T08:32:24.160Z,23.10
2022-08-09T08:34:58.539Z,22.99
2022-08-09T08:37:30.947Z,23.00
2022-08-09T08:40:09.575Z,22.88
2022-08-09T08:42:38.384Z,22.69
2022-08-09T08:45:13.884Z,22.50
2022-08-09T08:47:42.889Z,22.70
2022-08-09T08:50:15.445Z,22.77
2022-08-09T08:52:57.836Z,22.80
2022-08-09T08:55:27.468Z,22.79
2022-08-09T08:57:58.230Z,22.90
2022-08-09T09:00:34.294Z,22.90
2022-08-09T09:03:12.250Z,22.86
2022-08-09T09:05:59.988Z,23.53
2022-08-09T09:08:41.017Z,23.99
2022-08-09T09:11:13.747Z,24.05
2022-08-09T09:13:55.147Z,23.85
2022-08-09T09:16:30.289Z,24.08
2022-08-09T09:21:58.079Z,25.20
2022-08-09T09:24:45.629Z,24.71
2022-08-09T09:27:47.212Z,24.63
2022-08-09T09:30:26.197Z,25.76
2022-08-09T09:33:16.850Z,26.70
2022-08-09T09:36:02.576Z,26.81
2022-08-09T09:38:52.240Z,26.58
2022-08-09T09:41:32.616Z,26.47
2022-08-09T09:44:12.120Z,27.37
2022-08-09T09:46:51.308Z,26.90
2022-08-09T09:49:49.781Z,26.84
2022-08-09T09:52:24.127Z,27.67
2022-08-09T09:55:23.845Z,27.13
2022-08-09T09:58:17.346Z,27.98
2022-08-09T10:00:59.553Z,28.02
2022-08-09T10:03:56.342Z,28.00
2022-08-09T10:06:43.432Z,27.76
2022-08-09T10:09:22.665Z,28.55
2022-08-09T10:12:15.067Z,28.23
2022-08-09T10:14:49.522Z,28.25
2022-08-09T10:17:40.241Z,28.90
2022-08-09T10:20:27.138Z,28.77
2022-08-09T10:23:12.377Z,29.42
2022-08-09T10:26:06.307Z,29.61
2022-08-09T10:28:33.230Z,29.58
2022-08-09T10:34:10.473Z,29.45
2022-08-09T10:36:36.393Z,30.10
2022-08-09T10:39:13.983Z,29.90
2022-08-09T10:41:46.042Z,29.49
2022-08-09T10:44:18.431Z,29.53
2022-08-09T10:48:16.228Z,30.05
2022-08-09T10:50:30.923Z,29.89
2022-08-09T10:53:10.986Z,30.53
2022-08-09T10:55:55.693Z,30.36
2022-08-09T10:58:34.812Z,30.56
2022-08-09T11:03:03.351Z,30.03
2022-08-09T11:04:19.407Z,29.78
2022-08-09T11:06:58.137Z,30.35
2022-08-09T11:09:41.044Z,30.06
2022-08-09T11:12:21.711Z,29.96
2022-08-09T11:14:57.689Z,29.27
2022-08-09T11:17:27.429Z,29.98
2022-08-09T11:20:10.754Z,30.22
2022-08-09T11:22:47.283Z,30.40
2022-08-09T11:25:47.823Z,29.93
2022-08-09T11:28:54.139Z,29.92
2022-08-09T11:31:49.476Z,30.07
2022-08-09T11:34:35.248Z,30.00
2022-08-09T11:37:03.538Z,30.54
2022-08-09T11:40:02.866Z,29.81
2022-08-09T11:42:53.448Z,30.47
2022-08-09T11:45:26.338Z,30.34
2022-08-09T11:48:19.355Z,29.34
2022-08-09T11:52:50.021Z,29.67
2022-08-09T11:54:01.274Z,29.36
2022-08-09T11:56:42.359Z,30.31
2022-08-09T11:59:30.271Z,29.98
2022-08-09T12:02:18.010Z,30.32
2022-08-09T12:04:58.174Z,31.07
2022-08-09T12:07:34.544Z,30.85
2022-08-09T12:10:14.387Z,30.53
2022-08-09T12:12:57.565Z,30.76
2022-08-09T12:15:49.712Z,30.71
2022-08-09T12:18:30.043Z,30.47
2022-08-09T12:21:00.455Z,30.70
2022-08-09T12:23:56.568Z,30.82
2022-08-09T12:26:19.875Z,30.26
2022-08-09T12:29:14.150Z,30.04
2022-08-09T12:31:58.703Z,30.19
2022-08-09T12:34:38.226Z,30.13
2022-08-09T12:37:22.230Z,30.65
2022-08-09T12:40:09.128Z,29.89
2022-08-09T12:42:37.245Z,30.33
2022-08-09T12:45:07.026Z,30.05
2022-08-09T12:47:52.640Z,30.62
2022-08-09T12:50:23.664Z,30.96
2022-08-09T12:53:09.350Z,30.91
2022-08-09T12:56:11.503Z,30.03
2022-08-09T12:58:28.266Z,30.51
2022-08-09T13:00:56.554Z,30.27
2022-08-09T13:03:58.344Z,30.02
2022-08-09T13:06:34.440Z,30.09
2022-08-09T13:09:13.449Z,30.49
2022-08-09T13:11:46.009Z,30.24
2022-08-09T13:14:42.703Z,30.04
2022-08-09T13:17:25.753Z,30.21
2022-08-09T13:20:14.097Z,30.10
2022-08-09T13:23:06.058Z,29.94
2022-08-09T13:25:52.995Z,30.24
2022-08-09T13:28:33.837Z,30.07
2022-08-09T13:32:13.347Z,30.27
2022-08-09T13:33:53.532Z,30.12
2022-08-09T13:36:24.163Z,30.89
2022-08-09T13:41:17.595Z,29.57
2022-08-09T13:42:12.079Z,30.75
2022-08-09T13:44:45.638Z,30.70
2022-08-09T13:47:33.433Z,30.96
2022-08-09T13:50:12.627Z,30.24
2022-08-09T13:52:47.672Z,30.21
2022-08-09T13:55:15.505Z,31.00
2022-08-09T13:57:56.000Z,30.91
2022-08-09T14:00:28.692Z,30.57
2022-08-09T14:03:16.877Z,29.97
2022-08-09T14:05:59.405Z,31.39
2022-08-09T14:08:30.169Z,30.81
2022-08-09T14:10:57.977Z,30.48
2022-08-09T14:14:15.378Z,30.96
2022-08-09T14:16:16.855Z,30.67
2022-08-09T14:18:49.436Z,30.92
2022-08-09T14:21:22.488Z,30.87
2022-08-09T14:23:54.976Z,30.86
2022-08-09T14:26:31.463Z,30.18
2022-08-09T14:29:01.348Z,29.76
2022-08-09T14:31:35.841Z,31.06
2022-08-09T14:34:17.484Z,30.91
2022-08-09T14:36:55.393Z,30.98
2022-08-09T14:39:45.979Z,31.04
2022-08-09T14:42:09.344Z,30.50
2022-08-09T14:44:48.773Z,30.94
2022-08-09T14:47:41.239Z,30.75
2022-08-09T14:50:04.938Z,30.03
2022-08-09T14:52:33.625Z,30.28
2022-08-09T14:55:02.764Z,31.22
2022-08-09T14:57:31.751Z,30.83
2022-08-09T15:00:10.442Z,30.11
2022-08-09T15:02:37.529Z,30.42
2022-08-09T15:05:07.093Z,30.09
2022-08-09T15:07:35.185Z,29.34
2022-08-09T15:10:11.251Z,30.42
2022-08-09T15:12:45.018Z,30.08
2022-08-09T15:15:12.977Z,29.22
2022-08-09T15:17:41.829Z,30.45
2022-08-09T15:20:11.767Z,30.07
2022-08-09T15:22:47.280Z,30.19
2022-08-09T15:25:14.616Z,30.24
2022-08-09T15:28:02.937Z,29.26
2022-08-09T15:30:55.710Z,29.07
2022-08-09T15:33:23.365Z,28.78
2022-08-09T15:36:01.516Z,28.26
2022-08-09T15:38:28.862Z,28.29
2022-08-09T15:40:55.668Z,28.33
2022-08-09T15:43:24.818Z,27.95
2022-08-09T15:46:28.607Z,28.35
2022-08-09T15:49:21.721Z,27.81
2022-08-09T15:52:05.235Z,27.55
2022-08-09T15:54:32.195Z,27.47
2022-08-09T15:57:09.539Z,27.93
2022-08-09T15:59:37.518Z,27.20
2022-08-09T16:02:05.590Z,27.61
2022-08-09T16:04:34.417Z,27.49
2022-08-09T16:07:02.128Z,27.37
2022-08-09T16:09:51.378Z,27.45
2022-08-09T16:12:16.020Z,27.38
2022-08-09T16:14:43.065Z,27.40
2022-08-09T16:17:12.753Z,27.78
2022-08-09T16:19:49.309Z,27.84
2022-08-09T16:22:30.613Z,27.27
2022-08-09T16:24:59.428Z,26.96
2022-08-09T16:27:27.399Z,27.40
2022-08-09T16:30:00.997Z,26.94
2022-08-09T16:32:49.546Z,26.42
2022-08-09T16:35:56.723Z,26.22
2022-08-09T16:38:09.435Z,25.79
2022-08-09T16:40:40.610Z,25.64
2022-08-09T16:43:08.737Z,25.59
2022-08-09T16:45:43.810Z,25.36
2022-08-09T16:48:38.242Z,25.04
2022-08-09T16:51:07.462Z,24.71
2022-08-09T16:53:36.826Z,24.40
2022-08-09T16:56:09.972Z,24.28
2022-08-09T16:58:39.668Z,24.20
2022-08-09T17:01:10.032Z,24.17
2022-08-09T17:03:38.171Z,24.02
2022-08-09T17:06:31.155Z,24.15
2022-08-09T17:08:59.894Z,23.86
2022-08-09T17:11:39.909Z,23.82
2022-08-09T17:14:15.979Z,23.76
2022-08-09T17:17:01.396Z,23.65
2022-08-09T17:19:47.384Z,23.62
2022-08-09T17:22:23.918Z,23.44
2022-08-09T17:25:03.311Z,23.46
2022-08-09T17:27:34.765Z,23.20
2022-08-09T17:30:13.176Z,23.21
2022-08-09T17:32:44.422Z,22.91
2022-08-09T17:35:14.035Z,22.90
2022-08-09T17:38:12.511Z,22.62
2022-08-09T17:40:30.424Z,22.71
2022-08-09T17:43:34.075Z,22.75
2022-08-09T17:46:06.651Z,22.68
2022-08-09T17:48:51.508Z,22.61
2022-08-09T17:51:20.263Z,22.52
2022-08-09T17:53:53.608Z,22.28
2022-08-09T17:56:29.261Z,22.19
2022-08-09T17:59:11.993Z,22.22
2022-08-09T18:02:07.187Z,22.06
2022-08-09T18:04:31.529Z,21.99
2022-08-09T18:06:59.773Z,21.93
2022-08-09T18:09:40.282Z,21.98
2022-08-09T18:12:18.248Z,21.94
2022-08-09T18:14:55.124Z,21.81
2022-08-09T18:18:03.703Z,21.73
2022-08-09T18:20:54.307Z,21.63
2022-08-09T18:23:05.357Z,21.54
2022-08-09T18:25:53.186Z,21.37
2022-08-09T18:30:42.912Z,21.29
2022-08-09T18:31:08.621Z,21.24
2022-08-09T18:33:36.078Z,21.19
2022-08-09T18:36:03.088Z,21.08
2022-08-09T18:38:30.630Z,21.03
2022-08-09T18:40:58.385Z,20.98
2022-08-09T18:43:27.087Z,20.86
2022-08-09T18:46:50.477Z,20.74
2022-08-09T18:48:42.283Z,20.51
2022-08-09T18:51:09.866Z,20.45
2022-08-09T18:53:56.398Z,20.41
2022-08-09T18:56:27.725Z,20.28
2022-08-09T18:58:56.858Z,20.19
2022-08-09T19:01:25.633Z,20.06
2022-08-09T19:04:05.934Z,20.05
2022-08-09T19:06:38.575Z,19.89
2022-08-09T19:09:07.343Z,19.86
2022-08-09T19:11:37.686Z,19.79
2022-08-09T19:14:09.680Z,19.67
2022-08-09T19:16:49.958Z,19.59
2022-08-09T19:19:25.595Z,19.54
2022-08-09T19:22:04.720Z,19.51
2022-08-09T19:25:07.628Z,19.44
2022-08-09T19:27:22.900Z,19.36
2022-08-09T19:30:22.513Z,19.27
2022-08-09T19:32:37.117Z,19.21
2022-08-09T19:35:04.704Z,19.12
2022-08-09T19:37:40.943Z,19.01
2022-08-09T19:40:19.476Z,18.96
2022-08-09T19:42:47.555Z,18.92
2022-08-09T19:45:17.747Z,18.99
2022-08-09T19:47:45.459Z,18.96
2022-08-09T19:50:51.284Z,18.93
2022-08-09T19:53:04.184Z,18.80
2022-08-09T19:56:02.163Z,18.72
2022-08-09T19:58:30.230Z,18.63
2022-08-09T20:00:57.345Z,18.63
2022-08-09T20:04:17.880Z,18.48
2022-08-09T20:06:23.676Z,18.34
2022-08-09T20:08:56.626Z,18.42
2022-08-09T20:11:42.844Z,18.32
2022-08-09T20:14:15.393Z,18.30
2022-08-09T20:16:49.801Z,18.19
2022-08-09T20:19:49.653Z,18.18
2022-08-09T20:22:09.914Z,18.21
2022-08-09T20:24:37.775Z,18.19
2022-08-09T20:27:08.921Z,18.21
2022-08-09T20:29:39.547Z,18.28
2022-08-09T20:32:31.081Z,18.21
2022-08-09T20:34:56.809Z,17.96
2022-08-09T20:37:24.725Z,17.92
2022-08-09T20:40:16.121Z,17.81
2022-08-09T20:42:53.377Z,17.73
2022-08-09T20:46:01.242Z,17.69
2022-08-09T20:48:21.163Z,17.60
2022-08-09T20:50:51.074Z,17.54
2022-08-09T20:53:37.288Z,17.44
2022-08-09T20:56:08.652Z,17.48
2022-08-09T20:58:37.973Z,17.38
2022-08-09T21:01:32.799Z,17.43
2022-08-09T21:05:49.101Z,17.28
2022-08-09T21:06:42.996Z,17.22
2022-08-09T21:09:13.482Z,17.28
2022-08-09T21:14:31.311Z,17.17
2022-08-09T21:17:00.431Z,17.14
2022-08-09T21:20:18.156Z,17.08
2022-08-09T21:22:36.285Z,16.99
2022-08-09T21:25:20.951Z,16.94
2022-08-09T21:27:51.373Z,16.94
2022-08-09T21:30:22.168Z,16.81
2022-08-09T21:32:50.428Z,16.76
2022-08-09T21:35:17.965Z,16.72
2022-08-09T21:37:59.110Z,16.71
2022-08-09T21:40:30.146Z,16.67
2022-08-09T21:43:01.814Z,16.63
2022-08-09T21:45:28.555Z,16.62
2022-08-09T21:47:58.813Z,16.58
2022-08-09T21:50:35.957Z,16.57
2022-08-09T21:53:15.631Z,16.51
2022-08-09T21:55:54.507Z,16.44
2022-08-09T21:58:21.221Z,16.41
2022-08-09T22:00:58.151Z,16.44
2022-08-09T22:03:26.238Z,16.41
2022-08-09T22:05:54.717Z,16.35
2022-08-09T22:08:24.555Z,16.30
2022-08-09T22:11:00.736Z,16.27
2022-08-09T22:13:43.297Z,16.17
2022-08-09T22:16:10.956Z,16.31
2022-08-09T22:18:53.613Z,16.22
2022-08-09T22:21:24.332Z,16.17
2022-08-09T22:23:59.251Z,16.16
2022-08-09T22:26:35.104Z,16.13
2022-08-09T22:29:08.998Z,16.06
2022-08-09T22:31:37.754Z,16.10
2022-08-09T22:34:14.579Z,16.02
2022-08-09T22:36:45.588Z,15.97
2022-08-09T22:39:46.669Z,15.96
2022-08-09T22:42:03.435Z,16.02
2022-08-09T22:44:32.902Z,16.06
2022-08-09T22:48:13.804Z,16.02
2022-08-09T22:49:47.726Z,15.98
2022-08-09T22:52:19.012Z,15.88
2022-08-09T22:54:47.380Z,15.81
2022-08-09T22:57:14.745Z,15.81
2022-08-09T22:59:57.189Z,15.73
2022-08-09T23:02:27.389Z,15.80
2022-08-09T23:04:55.325Z,15.75
2022-08-09T23:08:21.300Z,15.69
2022-08-09T23:10:31.142Z,15.68
2022-08-09T23:12:58.304Z,15.70
2022-08-09T23:15:25.393Z,15.69
2022-08-09T23:17:52.176Z,15.56
2022-08-09T23:20:18.933Z,15.51
2022-08-09T23:22:45.861Z,15.54
2022-08-09T23:25:12.986Z,15.55
2022-08-09T23:28:09.364Z,15.43
2022-08-09T23:30:26.616Z,15.41
2022-08-09T23:32:53.442Z,15.43
2022-08-09T23:35:20.405Z,15.43
2022-08-09T23:37:47.161Z,15.37
2022-08-09T23:40:13.990Z,15.41
2022-08-09T23:42:40.811Z,15.41
2022-08-09T23:45:08.855Z,15.41
2022-08-09T23:47:35.827Z,15.33
2022-08-09T23:50:03.289Z,15.31
2022-08-09T23:52:30.083Z,15.29
2022-08-09T23:54:57.922Z,15.21
2022-08-09T23:57:25.128Z,15.18
